Time;durP1;ratioP1;P1;durP2;ratioP2;P2;SDS_P1;SDS_P2;PMS_P1;PMS_P2;Temp;Humidity;BMP_temperature;BMP_pressure;BME280_temperature;BME280_humidity;BME280_pressure;Samples;Min_cycle;Max_cycle;Signal;HPM_P1;HPM_P2
2021/06/02 00:00:00;;;;;;;;;;;;;;;19.40;42.00;101446.94;5034016;28;97693;-89
2021/06/02 00:02:26;;;;;;;;;;;;;;;19.70;41.52;101440.66;5056878;28;98658;-88
2021/06/02 00:05:11;;;;;;;;;;;;;;;19.93;41.33;101450.81;5038610;28;96582;-88
2021/06/02 00:07:53;;;;;;;;;;;;;;;19.76;41.20;101449.19;5051835;28;97745;-87
2021/06/02 00:13:46;;;;;;;;;;;;;;;19.87;40.98;101457.44;5051284;28;98353;-88
2021/06/02 00:16:17;;;;;;;;;;;;;;;19.74;41.02;101444.88;5024828;28;96827;-88
2021/06/02 00:18:58;;;;;;;;;;;;;;;19.53;41.78;101443.53;5052639;27;97204;-87
2021/06/02 00:21:26;;;;;;;;;;;;;;;19.28;42.36;101449.50;5042140;28;99723;-89
2021/06/02 00:23:56;;;;;;;;;;;;;;;19.11;42.96;101450.50;5038820;28;99357;-89
2021/06/02 00:26:30;;;;;;;;;;;;;;;19.47;41.95;101445.66;5043097;28;96686;-89
2021/06/02 00:28:58;;;;;;;;;;;;;;;19.61;41.29;101443.94;5027882;28;97818;-88
2021/06/02 00:31:29;;;;;;;;;;;;;;;19.01;42.84;101457.38;5043688;28;97027;-89
2021/06/02 00:42:09;;;;;;;;;;;;;;;18.65;44.24;101449.66;5038250;28;96726;-89
2021/06/02 00:44:50;;;;;;;;;;;;;;;18.04;45.71;101445.13;5028638;28;97980;-88
2021/06/02 00:47:23;;;;;;;;;;;;;;;18.70;44.21;101450.28;5036641;28;97375;-88
2021/06/02 00:49:50;;;;;;;;;;;;;;;18.68;44.39;101439.66;5045897;28;96646;-87
2021/06/02 00:52:20;;;;;;;;;;;;;;;18.59;44.65;101444.69;5025983;28;97676;-89
2021/06/02 00:54:57;;;;;;;;;;;;;;;18.53;45.29;101440.50;5043969;28;99749;-91
2021/06/02 00:57:28;;;;;;;;;;;;;;;18.03;46.43;101437.16;5049732;27;96752;-88
2021/06/02 01:00:15;;;;;;;;;;;;;;;18.17;46.40;101442.63;5027221;28;97575;-88
2021/06/02 01:05:33;;;;;;;;;;;;;;;18.54;45.37;101450.28;5041445;28;96323;-87
2021/06/02 01:08:09;;;;;;;;;;;;;;;18.38;45.66;101457.44;5044455;28;96754;-89
2021/06/02 01:10:41;;;;;;;;;;;;;;;18.18;46.30;101463.06;5043745;28;97800;-88
2021/06/02 01:15:56;;;;;;;;;;;;;;;17.88;46.78;101462.94;5092288;22;97943;-87
2021/06/02 01:18:23;;;;;;;;;;;;;;;18.35;45.63;101462.09;5011848;28;96712;-88
2021/06/02 01:21:21;;;;;;;;;;;;;;;18.47;45.03;101470.31;5012908;28;96681;-88
2021/06/02 01:24:04;;;;;;;;;;;;;;;18.70;44.76;101469.91;5007667;28;98989;-89
2021/06/02 01:29:14;;;;;;;;;;;;;;;18.83;44.40;101475.41;5023128;28;96045;-90
2021/06/02 01:32:00;;;;;;;;;;;;;;;18.51;45.11;101463.81;5020343;28;97096;-90
2021/06/02 01:34:34;;;;;;;;;;;;;;;18.24;45.44;101476.09;5014721;28;96703;-88
2021/06/02 01:37:52;;;;;;;;;;;;;;;17.63;47.23;101484.78;5019717;28;97906;-89
2021/06/02 01:40:40;;;;;;;;;;;;;;;18.05;46.12;101470.88;5028121;28;96584;-88
2021/06/02 01:46:18;;;;;;;;;;;;;;;17.27;47.86;101476.84;5012962;28;98428;-88
2021/06/02 01:48:56;;;;;;;;;;;;;;;17.20;48.40;101478.09;5020453;28;97600;-89
2021/06/02 01:51:58;;;;;;;;;;;;;;;17.26;47.98;101480.47;5018046;28;96878;-89
2021/06/02 01:57:55;;;;;;;;;;;;;;;17.99;46.06;101487.25;5024850;28;98999;-90
2021/06/02 02:05:51;;;;;;;;;;;;;;;17.66;46.89;101492.63;5054549;22;97253;-90
2021/06/02 02:08:29;;;;;;;;;;;;;;;17.32;48.03;101487.31;5040032;22;97474;-88
2021/06/02 02:10:59;;;;;;;;;;;;;;;17.73;46.97;101472.63;5014750;28;100408;-89
2021/06/02 02:16:30;;;;;;;;;;;;;;;17.65;47.30;101476.69;5012993;28;98129;-89
2021/06/02 02:19:03;;;;;;;;;;;;;;;17.54;47.65;101486.09;5012607;28;97800;-89
2021/06/02 02:24:50;;;;;;;;;;;;;;;17.05;49.16;101490.44;4994221;28;95978;-90
2021/06/02 02:30:31;;;;;;;;;;;;;;;17.24;49.06;101481.47;5016444;28;96747;-89
2021/06/02 02:33:04;;;;;;;;;;;;;;;16.78;50.14;101497.16;5015379;27;99308;-89
2021/06/02 02:35:46;;;;;;;;;;;;;;;17.28;49.21;101499.06;5046176;22;99093;-89
2021/06/02 02:38:25;;;;;;;;;;;;;;;17.50;48.62;101489.00;5015950;28;96762;-90
2021/06/02 02:41:07;;;;;;;;;;;;;;;17.27;49.23;101487.50;5015175;28;99931;-87
2021/06/02 02:46:44;;;;;;;;;;;;;;;16.95;50.30;101505.19;5005349;28;96768;-90
2021/06/02 02:49:18;;;;;;;;;;;;;;;17.25;49.77;101513.47;5013673;28;96271;-89
2021/06/02 02:51:54;;;;;;;;;;;;;;;17.32;49.18;101517.56;5011208;28;98584;-88
2021/06/02 02:54:28;;;;;;;;;;;;;;;16.71;51.20;101511.72;5009361;28;98895;-91
2021/06/02 02:56:58;;;;;;;;;;;;;;;16.30;52.91;101514.53;5014749;28;96711;-89
2021/06/02 02:59:26;;;;;;;;;;;;;;;16.43;52.64;101509.50;5010855;28;96629;-88
2021/06/02 03:01:59;;;;;;;;;;;;;;;16.45;52.53;101512.09;4998902;28;96822;-90
2021/06/02 03:04:27;;;;;;;;;;;;;;;16.87;51.50;101510.03;5019887;28;99153;-87
2021/06/02 03:09:40;;;;;;;;;;;;;;;17.27;50.22;101516.91;5013053;28;96758;-88
2021/06/02 03:12:14;;;;;;;;;;;;;;;17.11;50.74;101529.31;5013715;28;100003;-87
2021/06/02 03:14:50;;;;;;;;;;;;;;;17.15;50.98;101517.53;5020512;28;100145;-89
2021/06/02 03:20:10;;;;;;;;;;;;;;;17.61;49.63;101529.41;5004917;28;96744;-89
2021/06/02 03:22:59;;;;;;;;;;;;;;;17.23;50.49;101525.16;5019955;28;100335;-90
2021/06/02 03:25:39;;;;;;;;;;;;;;;17.24;50.58;101530.44;5002422;28;99134;-90
2021/06/02 03:28:10;;;;;;;;;;;;;;;17.28;50.79;101521.31;5004311;28;96879;-89
2021/06/02 03:30:39;;;;;;;;;;;;;;;16.75;52.10;101526.66;5009620;28;96864;-91
2021/06/02 03:33:30;;;;;;;;;;;;;;;17.02;51.52;101529.75;5008130;28;98941;-89
2021/06/02 03:36:03;;;;;;;;;;;;;;;17.09;51.46;101531.19;5003392;28;99449;-89
2021/06/02 03:38:35;;;;;;;;;;;;;;;16.79;52.05;101525.56;5035108;28;97506;-90
2021/06/02 03:41:06;;;;;;;;;;;;;;;17.09;51.51;101534.72;5041624;28;96965;-88
2021/06/02 03:43:40;;;;;;;;;;;;;;;16.31;53.90;101537.63;5039163;28;96923;-89
2021/06/02 03:46:39;;;;;;;;;;;;;;;16.73;52.80;101531.22;5040801;28;99701;-89
2021/06/02 03:49:12;;;;;;;;;;;;;;;16.89;52.38;101536.66;5039978;28;95971;-88
2021/06/02 03:51:57;;;;;;;;;;;;;;;17.26;51.25;101533.03;5041622;27;96736;-89
2021/06/02 03:57:59;;;;;;;;;;;;;;;17.32;51.37;101535.38;5034668;28;96346;-88
2021/06/02 04:03:20;;;;;;;;;;;;;;;17.18;51.93;101541.41;5033929;28;96501;-89
2021/06/02 04:05:58;;;;;;;;;;;;;;;16.52;53.46;101541.06;5032177;27;99579;-88
2021/06/02 04:08:41;;;;;;;;;;;;;;;16.71;53.29;101541.09;5034580;28;99427;-89
2021/06/02 04:11:13;;;;;;;;;;;;;;;16.87;52.75;101535.88;5035505;28;96839;-89
2021/06/02 04:14:00;;;;;;;;;;;;;;;17.41;51.25;101541.09;5040770;27;96554;-88
2021/06/02 04:16:32;;;;;;;;;;;;;;;17.53;50.70;101542.28;5033478;28;99210;-88
2021/06/02 04:19:02;;;;;;;;;;;;;;;18.00;49.50;101542.47;5034536;28;96739;-89
2021/06/02 04:21:35;;;;;;;;;;;;;;;18.33;48.48;101539.78;5023437;28;96795;-88
2021/06/02 04:24:03;;;;;;;;;;;;;;;18.00;49.04;101549.63;5006950;28;96767;-89
2021/06/02 04:26:31;;;;;;;;;;;;;;;17.46;50.58;101548.88;5025292;28;100867;-90
2021/06/02 04:28:59;;;;;;;;;;;;;;;17.29;51.20;101551.56;5027343;28;96853;-89
2021/06/02 04:34:12;;;;;;;;;;;;;;;17.53;50.76;101543.13;5028747;28;96831;-89
2021/06/02 04:39:27;;;;;;;;;;;;;;;17.84;49.50;101534.44;5022859;28;99658;-88
2021/06/02 04:41:54;;;;;;;;;;;;;;;17.49;50.64;101535.38;5021349;28;97503;-90
2021/06/02 04:44:22;;;;;;;;;;;;;;;18.00;49.63;101536.25;5027193;28;96718;-88
2021/06/02 04:46:49;;;;;;;;;;;;;;;17.36;50.79;101540.47;5028210;28;98860;-90
2021/06/02 04:49:25;;;;;;;;;;;;;;;17.87;49.71;101534.25;5034058;28;100506;-88
2021/06/02 04:52:26;;;;;;;;;;;;;;;17.99;49.49;101531.84;5036766;28;96759;-88
2021/06/02 04:55:11;;;;;;;;;;;;;;;18.28;48.98;101534.69;5037921;28;96490;-89
2021/06/02 05:00:50;;;;;;;;;;;;;;;18.76;47.54;101545.44;5028542;28;96742;-88
2021/06/02 05:03:21;;;;;;;;;;;;;;;19.01;46.77;101548.44;5019474;28;96619;-89
2021/06/02 05:09:00;;;;;;;;;;;;;;;18.72;47.92;101558.13;5037373;28;96981;-89
2021/06/02 05:11:56;;;;;;;;;;;;;;;18.43;48.54;101557.06;5033551;28;100212;-90
2021/06/02 05:14:47;;;;;;;;;;;;;;;19.38;46.06;101550.69;4958840;28;96158;-88
2021/06/02 05:17:24;;;;;;;;;;;;;;;19.07;46.67;101558.81;5034150;28;96590;-88
2021/06/02 05:23:43;;;;;;;;;;;;;;;18.95;46.71;101563.06;5038810;28;97730;-88
2021/06/02 05:26:36;;;;;;;;;;;;;;;18.62;48.20;101563.16;4972739;28;96970;-88
2021/06/02 05:29:09;;;;;;;;;;;;;;;18.97;47.07;101566.47;5036791;28;96597;-88
2021/06/02 05:32:00;;;;;;;;;;;;;;;19.64;45.69;101556.31;5026805;28;100536;-88
2021/06/02 05:34:44;;;;;;;;;;;;;;;19.35;46.26;101561.59;5011914;28;98088;-87
2021/06/02 05:37:38;;;;;;;;;;;;;;;19.14;46.66;101557.50;5035733;28;96945;-88
2021/06/02 05:40:19;;;;;;;;;;;;;;;19.18;46.58;101555.47;5037059;27;96091;-90
2021/06/02 05:43:09;;;;;;;;;;;;;;;19.22;46.60;101560.59;5034240;28;100147;-89
2021/06/02 05:45:49;;;;;;;;;;;;;;;18.95;47.13;101564.88;5058336;27;99316;-88
2021/06/02 05:48:36;;;;;;;;;;;;;;;19.03;47.42;101563.44;5047183;27;95924;-89
2021/06/02 05:51:23;;;;;;;;;;;;;;;18.22;49.44;101567.13;5036023;27;96016;-87
2021/06/02 05:54:16;;;;;;;;;;;;;;;18.41;49.31;101569.66;5026832;28;100032;-91
2021/06/02 05:57:00;;;;;;;;;;;;;;;18.44;48.99;101574.84;5028093;28;100239;-88
2021/06/02 05:59:47;;;;;;;;;;;;;;;19.55;46.49;101579.22;4978908;28;97101;-89
2021/06/02 06:02:33;;;;;;;;;;;;;;;20.16;44.82;101573.63;5010777;28;96687;-90
2021/06/02 06:07:58;;;;;;;;;;;;;;;20.54;43.75;101581.13;5497871;22;100576;-88
2021/06/02 06:13:47;;;;;;;;;;;;;;;19.73;45.83;101590.63;5033129;27;96681;-89
2021/06/02 06:19:33;;;;;;;;;;;;;;;20.43;44.39;101578.25;5024815;28;98949;-88
2021/06/02 06:22:23;;;;;;;;;;;;;;;19.32;47.13;101591.25;5028559;28;97479;-87
2021/06/02 06:25:13;;;;;;;;;;;;;;;19.22;47.72;101591.88;5023961;28;96611;-86
2021/06/02 06:27:59;;;;;;;;;;;;;;;18.85;48.45;101585.94;5022502;28;99590;-89
2021/06/02 06:33:13;;;;;;;;;;;;;;;19.30;47.87;101598.50;5021901;28;96658;-89
2021/06/02 06:35:47;;;;;;;;;;;;;;;19.24;47.86;101596.19;5022563;28;96619;-88
2021/06/02 06:38:36;;;;;;;;;;;;;;;19.19;48.16;101610.78;5018972;28;98166;-90
2021/06/02 06:41:10;;;;;;;;;;;;;;;19.46;47.63;101610.09;5015179;28;99357;-89
2021/06/02 06:43:50;;;;;;;;;;;;;;;19.92;46.20;101606.47;5013782;28;96664;-90
2021/06/02 06:46:25;;;;;;;;;;;;;;;19.25;48.01;101608.63;5025580;28;97950;-87
2021/06/02 06:48:54;;;;;;;;;;;;;;;20.20;45.58;101604.69;5023726;28;98777;-89
2021/06/02 06:51:21;;;;;;;;;;;;;;;22.53;40.27;101606.06;5020601;28;97703;-88
2021/06/02 06:53:53;;;;;;;;;;;;;;;22.33;40.73;101608.44;5023408;22;99072;-86
2021/06/02 06:59:26;;;;;;;;;;;;;;;21.43;42.39;101611.97;4995008;28;97244;-88
2021/06/02 07:02:14;;;;;;;;;;;;;;;21.80;41.99;101605.81;4993706;28;99738;-87
2021/06/02 07:07:32;;;;;;;;;;;;;;;21.73;42.43;101603.66;5003674;28;97057;-88
2021/06/02 07:10:00;;;;;;;;;;;;;;;22.30;40.99;101604.16;4986427;28;100070;-87
2021/06/02 07:12:26;;;;;;;;;;;;;;;21.95;41.82;101605.72;4986407;28;101277;-86
2021/06/02 07:14:53;;;;;;;;;;;;;;;22.70;40.21;101602.16;4975118;28;97174;-84
2021/06/02 07:17:24;;;;;;;;;;;;;;;21.40;43.44;101612.19;4994764;28;97152;-86
2021/06/02 07:22:43;;;;;;;;;;;;;;;21.79;42.74;101604.09;5008147;28;96829;-84
2021/06/02 07:28:16;;;;;;;;;;;;;;;22.10;41.86;101599.31;4994997;28;97852;-86
2021/06/02 07:30:48;;;;;;;;;;;;;;;21.80;42.61;101603.13;5008692;28;99402;-85
2021/06/02 07:33:27;;;;;;;;;;;;;;;22.65;40.88;101594.38;5001094;28;98465;-87
2021/06/02 07:36:05;;;;;;;;;;;;;;;22.15;42.12;101602.53;4986563;28;96524;-86
2021/06/02 07:38:32;;;;;;;;;;;;;;;21.91;42.68;101598.84;5013464;28;96709;-86
2021/06/02 07:41:07;;;;;;;;;;;;;;;22.86;40.64;101585.75;5021104;28;100925;-87
2021/06/02 07:46:34;;;;;;;;;;;;;;;23.40;39.80;101575.38;5008558;28;96551;-88
2021/06/02 07:51:42;;;;;;;;;;;;;;;22.65;41.75;101585.44;4997479;28;98558;-87
2021/06/02 07:54:16;;;;;;;;;;;;;;;23.28;40.58;101577.16;4999456;28;99120;-85
2021/06/02 07:56:48;;;;;;;;;;;;;;;24.08;38.49;101577.28;5076439;22;96210;-87
2021/06/02 07:59:14;;;;;;;;;;;;;;;23.71;39.26;101580.16;5032660;28;97512;-86
2021/06/02 08:01:49;;;;;;;;;;;;;;;24.37;37.89;101580.41;5065742;22;99558;-83
2021/06/02 08:07:01;;;;;;;;;;;;;;;24.42;37.25;101578.16;5040459;28;95984;-88
2021/06/02 08:09:28;;;;;;;;;;;;;;;25.06;36.18;101586.47;5049197;22;96171;-88
2021/06/02 08:12:19;;;;;;;;;;;;;;;25.39;35.47;101581.81;5020048;28;98094;-87
2021/06/02 08:20:13;;;;;;;;;;;;;;;25.21;35.67;101585.19;5044022;22;96235;-84
2021/06/02 08:22:50;;;;;;;;;;;;;;;25.30;35.74;101589.81;5029248;27;99638;-86
2021/06/02 08:28:24;;;;;;;;;;;;;;;23.79;37.76;101582.25;5440028;22;99723;-89
2021/06/02 08:30:51;;;;;;;;;;;;;;;24.94;35.99;101586.47;5350269;22;100282;-89
2021/06/02 08:33:18;;;;;;;;;;;;;;;25.74;34.73;101589.63;5037189;28;99503;-87
2021/06/02 08:35:47;;;;;;;;;;;;;;;25.87;34.46;101585.88;5021183;28;98050;-87
2021/06/02 08:38:18;;;;;;;;;;;;;;;24.79;36.17;101594.97;5033714;28;96400;-86
2021/06/02 08:40:47;;;;;;;;;;;;;;;24.69;36.40;101585.88;5030839;28;96601;-88
2021/06/02 08:46:00;;;;;;;;;;;;;;;25.41;35.48;101584.38;5030733;28;96431;-87
2021/06/02 09:41:01;;;;;;;;;;;;;;;26.39;32.83;101584.91;5181453;22;98905;-86
2021/06/02 09:49:49;;;;;;;;;;;;;;;26.19;33.81;101583.91;5026712;27;99769;-85
2021/06/02 09:58:40;;;;;;;;;;;;;;;26.55;32.47;101580.69;5040177;27;96338;-85
2021/06/02 10:01:19;;;;;;;;;;;;;;;26.06;33.55;101583.28;5030653;27;96658;-86
2021/06/02 10:06:24;;;;;;;;;;;;;;;26.21;33.36;101581.94;5057179;22;97461;-86
2021/06/02 10:08:58;;;;;;;;;;;;;;;26.43;32.54;101587.22;5034647;28;96567;-86
2021/06/02 10:11:33;;;;;;;;;;;;;;;26.79;32.18;101574.91;5035137;28;99400;-88
2021/06/02 10:14:04;;;;;;;;;;;;;;;26.75;32.18;101584.31;5028489;28;96497;-88
2021/06/02 10:19:22;;;;;;;;;;;;;;;25.62;33.82;101582.56;5028040;28;99118;-89
2021/06/02 10:22:26;;;;;;;;;;;;;;;26.09;33.39;101585.72;5028275;28;98108;-87
2021/06/02 10:27:41;;;;;;;;;;;;;;;26.23;32.94;101588.09;5036942;28;96082;-90
2021/06/02 10:30:09;;;;;;;;;;;;;;;26.17;32.71;101596.75;5026817;28;98897;-86
2021/06/02 10:32:41;;;;;;;;;;;;;;;26.16;33.43;101597.75;5017624;28;96774;-88
2021/06/02 10:35:11;;;;;;;;;;;;;;;26.49;32.27;101589.38;5018100;28;96502;-86
2021/06/02 10:45:37;;;;;;;;;;;;;;;26.78;31.93;101602.19;5006797;28;97541;-87
2021/06/02 10:50:49;;;;;;;;;;;;;;;27.10;30.52;101599.28;5012066;28;99732;-86
2021/06/02 10:59:25;;;;;;;;;;;;;;;27.22;30.74;101601.72;4997355;28;96852;-88
2021/06/02 11:05:04;;;;;;;;;;;;;;;27.80;29.78;101598.16;5028327;28;96750;-89
2021/06/02 11:10:35;;;;;;;;;;;;;;;27.43;30.07;101588.03;5033599;28;97646;-86
2021/06/02 11:15:43;;;;;;;;;;;;;;;27.30;30.33;101592.88;5065721;27;96514;-88
2021/06/02 11:18:22;;;;;;;;;;;;;;;27.76;29.92;101597.59;5062858;27;96956;-88
2021/06/02 11:31:40;;;;;;;;;;;;;;;28.01;29.60;101590.69;5026707;28;96672;-89
2021/06/02 11:34:27;;;;;;;;;;;;;;;28.23;29.26;101586.78;5033617;28;96377;-89
2021/06/02 11:37:00;;;;;;;;;;;;;;;28.29;28.65;101580.78;5031764;28;96640;-89
2021/06/02 11:39:27;;;;;;;;;;;;;;;28.31;28.46;101581.47;5034608;28;96574;-89
2021/06/02 11:41:57;;;;;;;;;;;;;;;27.90;29.03;101586.25;5031455;28;96602;-88
2021/06/02 11:44:26;;;;;;;;;;;;;;;28.22;28.99;101585.94;5034716;28;96986;-89
2021/06/02 11:46:54;;;;;;;;;;;;;;;28.23;28.66;101581.34;5022541;28;99124;-90
2021/06/02 11:54:49;;;;;;;;;;;;;;;29.05;26.81;101584.09;5224861;22;98937;-88
2021/06/02 11:57:41;;;;;;;;;;;;;;;29.24;25.62;101589.41;5041754;28;98726;-88
2021/06/02 12:08:11;;;;;;;;;;;;;;;29.36;25.55;101584.59;5119833;22;95969;-86
2021/06/02 12:10:40;;;;;;;;;;;;;;;28.85;26.38;101577.94;5027208;28;97017;-87
2021/06/02 12:13:07;;;;;;;;;;;;;;;29.15;25.95;101584.88;5034680;28;96029;-87
2021/06/02 12:15:46;;;;;;;;;;;;;;;28.68;26.11;101570.56;5027615;28;100280;-89
2021/06/02 12:18:13;;;;;;;;;;;;;;;28.10;27.38;101577.06;5027262;28;99802;-88
2021/06/02 12:20:41;;;;;;;;;;;;;;;28.27;27.18;101567.31;5036013;28;96356;-87
2021/06/02 12:23:33;;;;;;;;;;;;;;;28.39;26.57;101576.13;5014348;28;96083;-86
2021/06/02 12:34:48;;;;;;;;;;;;;;;28.56;26.33;101588.94;5041663;27;2701302;-85
2021/06/02 12:37:15;;;;;;;;;;;;;;;28.33;26.41;101583.03;5112099;27;96512;-85
2021/06/02 12:39:43;;;;;;;;;;;;;;;28.08;26.96;101584.53;5122719;27;100149;-86
2021/06/02 12:45:00;;;;;;;;;;;;;;;28.34;27.25;101578.47;5113709;27;96287;-86
2021/06/02 12:47:29;;;;;;;;;;;;;;;28.32;26.96;101583.19;5095768;27;96121;-87
2021/06/02 12:50:20;;;;;;;;;;;;;;;28.65;26.77;101579.88;5110786;27;99250;-88
2021/06/02 12:53:13;;;;;;;;;;;;;;;28.70;26.23;101585.72;5115791;27;99370;-87
2021/06/02 12:55:49;;;;;;;;;;;;;;;29.00;25.42;101583.72;5110532;27;96813;-89
2021/06/02 12:58:16;;;;;;;;;;;;;;;29.58;25.29;101586.84;5106662;27;96793;-87
2021/06/02 13:00:47;;;;;;;;;;;;;;;29.65;25.51;101586.06;5106172;27;100021;-89
2021/06/02 13:03:28;;;;;;;;;;;;;;;29.59;24.69;101597.59;5126990;27;99195;-90
2021/06/02 13:08:44;;;;;;;;;;;;;;;29.80;24.67;101589.06;5398442;22;99897;-89
2021/06/02 13:11:13;;;;;;;;;;;;;;;30.02;23.80;101591.31;5048946;28;99232;-87
2021/06/02 13:16:22;;;;;;;;;;;;;;;31.01;22.89;101594.34;5054529;27;96869;-86
2021/06/02 13:21:57;;;;;;;;;;;;;;;31.07;22.08;101587.38;5276295;22;99268;-87
2021/06/02 13:24:27;;;;;;;;;;;;;;;32.51;20.79;101579.28;4995594;28;96856;-87
2021/06/02 13:26:54;;;;;;;;;;;;;;;33.17;20.38;101577.94;5010124;28;96672;-86
2021/06/02 13:29:22;;;;;;;;;;;;;;;33.51;19.65;101583.00;5007901;28;97238;-87
2021/06/02 13:31:51;;;;;;;;;;;;;;;32.98;19.92;101589.34;5003093;28;99345;-88
2021/06/02 13:34:31;;;;;;;;;;;;;;;32.18;20.69;101577.69;5001336;28;98756;-88
2021/06/02 13:40:29;;;;;;;;;;;;;;;33.32;19.53;101583.50;5007425;28;96843;-89
2021/06/02 13:43:15;;;;;;;;;;;;;;;33.21;18.99;101588.34;5003967;28;99999;-88
2021/06/02 13:46:06;;;;;;;;;;;;;;;33.96;18.41;101574.72;4996678;28;98479;-88
2021/06/02 13:48:35;;;;;;;;;;;;;;;34.84;17.37;101571.16;4996683;28;96519;-89
2021/06/02 13:51:16;;;;;;;;;;;;;;;35.08;16.83;101573.53;4999683;28;96787;-89
2021/06/02 13:59:05;;;;;;;;;;;;;;;35.41;15.22;101570.31;5039284;27;96870;-88
2021/06/02 14:01:42;;;;;;;;;;;;;;;36.32;15.09;101569.34;5037304;28;96729;-89
2021/06/02 14:04:09;;;;;;;;;;;;;;;34.99;16.20;101569.19;5034877;28;99987;-90
2021/06/02 14:09:19;;;;;;;;;;;;;;;35.12;16.55;101580.34;5022972;28;96775;-89
2021/06/02 14:14:34;;;;;;;;;;;;;;;38.77;13.78;101569.38;5035311;28;96504;-90
2021/06/02 14:20:15;;;;;;;;;;;;;;;41.42;11.25;101562.91;4978321;28;96714;-87
2021/06/02 14:22:43;;;;;;;;;;;;;;;41.89;11.41;101567.41;4988316;28;96687;-89
2021/06/02 14:28:02;;;;;;;;;;;;;;;43.75;9.72;101548.38;4998838;28;98506;-88
2021/06/02 14:39:06;;;;;;;;;;;;;;;39.00;12.96;101557.78;5003014;28;100232;-88
2021/06/02 14:41:33;;;;;;;;;;;;;;;36.49;15.26;101558.88;5021634;28;98420;-87
2021/06/02 14:44:01;;;;;;;;;;;;;;;34.87;16.95;101556.16;5031919;28;97055;-87
2021/06/02 14:49:13;;;;;;;;;;;;;;;38.71;13.53;101561.97;5008342;28;100272;-88
2021/06/02 14:51:42;;;;;;;;;;;;;;;38.59;13.03;101555.44;5017728;28;96533;-87
2021/06/02 14:54:18;;;;;;;;;;;;;;;41.88;10.83;101564.88;5013352;28;97151;-89
2021/06/02 14:56:48;;;;;;;;;;;;;;;40.74;11.70;101549.38;5014594;28;96924;-87
2021/06/02 15:02:40;;;;;;;;;;;;;;;35.95;15.66;101565.94;5026845;27;96433;-87
2021/06/02 15:05:13;;;;;;;;;;;;;;;33.77;17.20;101566.19;5023530;28;96185;-87
2021/06/02 15:10:45;;;;;;;;;;;;;;;35.61;15.83;101567.72;5013680;28;97586;-87
2021/06/02 15:24:32;;;;;;;;;;;;;;;31.32;19.61;101545.44;5017415;28;96061;-86
2021/06/02 15:27:06;;;;;;;;;;;;;;;31.06;20.32;101547.47;5017182;28;96622;-87
2021/06/02 15:29:39;;;;;;;;;;;;;;;31.14;20.25;101548.34;5018022;28;96946;-87
2021/06/02 15:32:07;;;;;;;;;;;;;;;31.58;19.96;101553.47;5032791;28;99000;-88
2021/06/02 15:34:37;;;;;;;;;;;;;;;31.21;20.32;101556.72;5016038;28;96216;-88
2021/06/02 15:39:55;;;;;;;;;;;;;;;31.28;19.99;101547.69;5003993;28;98908;-87
2021/06/02 15:45:26;;;;;;;;;;;;;;;30.81;20.67;101546.53;4997567;28;97517;-86
2021/06/02 15:56:10;;;;;;;;;;;;;;;30.56;20.90;101555.66;5029901;28;96183;-91
2021/06/02 15:59:07;;;;;;;;;;;;;;;30.46;21.03;101556.59;5014869;28;96633;-90
2021/06/02 16:01:51;;;;;;;;;;;;;;;30.11;21.12;101548.63;5020669;28;98420;-90
2021/06/02 16:04:17;;;;;;;;;;;;;;;30.45;21.28;101554.91;5019127;28;98392;-88
2021/06/02 16:22:50;;;;;;;;;;;;;;;29.43;22.50;101550.31;6070406;22;2046591;-89
2021/06/02 16:25:18;;;;;;;;;;;;;;;29.80;22.40;101544.66;6151445;23;97201;-89
2021/06/02 16:27:48;;;;;;;;;;;;;;;30.00;22.02;101551.59;6155135;23;98018;-88
2021/06/02 16:33:27;;;;;;;;;;;;;;;30.32;21.70;101546.34;6069045;23;96497;-88
2021/06/02 16:35:59;;;;;;;;;;;;;;;30.48;21.70;101548.28;6138420;22;95991;-87
2021/06/02 16:38:38;;;;;;;;;;;;;;;30.22;21.60;101553.78;6157830;23;100000;-88
2021/06/02 16:41:09;;;;;;;;;;;;;;;30.44;21.10;101557.81;6153432;23;99278;-89
2021/06/02 16:43:40;;;;;;;;;;;;;;;30.56;21.10;101550.22;6152900;23;96666;-91
2021/06/02 16:46:36;;;;;;;;;;;;;;;30.94;20.86;101557.81;6158157;22;96530;-86
2021/06/02 16:49:34;;;;;;;;;;;;;;;30.70;21.13;101553.16;6154543;22;99427;-88
2021/06/02 16:52:09;;;;;;;;;;;;;;;29.82;22.21;101558.94;6153603;22;97134;-88
2021/06/02 16:54:48;;;;;;;;;;;;;;;30.31;21.81;101557.41;6155148;23;96635;-88
2021/06/02 17:05:12;;;;;;;;;;;;;;;29.99;22.08;101572.56;6145297;22;96816;-87
2021/06/02 17:08:05;;;;;;;;;;;;;;;30.08;22.00;101568.84;6106773;22;98034;-88
2021/06/02 17:13:13;;;;;;;;;;;;;;;30.06;22.39;101575.50;6124093;22;96858;-87
2021/06/02 17:15:57;;;;;;;;;;;;;;;29.27;23.37;101572.78;6127317;23;96475;-87
2021/06/02 17:18:28;;;;;;;;;;;;;;;28.92;24.20;101579.88;6127834;23;96454;-88
2021/06/02 17:23:31;;;;;;;;;;;;;;;28.57;24.51;101578.91;6118559;22;99395;-87
2021/06/02 17:29:13;;;;;;;;;;;;;;;29.05;24.45;101593.13;6088682;23;95985;-86
2021/06/02 17:31:42;;;;;;;;;;;;;;;28.72;25.03;101600.03;6121890;23;99337;-87
2021/06/02 17:34:12;;;;;;;;;;;;;;;29.04;24.74;101604.16;6096258;23;97640;-89
2021/06/02 17:36:46;;;;;;;;;;;;;;;28.77;25.38;101608.59;6118057;23;96639;-89
2021/06/02 17:39:22;;;;;;;;;;;;;;;27.96;26.92;101623.69;6116804;23;96317;-89
2021/06/02 17:41:54;;;;;;;;;;;;;;;27.95;27.56;101616.59;6114182;23;100131;-90
2021/06/02 17:49:57;;;;;;;;;;;;;;;27.43;29.01;101627.88;6114279;22;96450;-89
2021/06/02 17:52:26;;;;;;;;;;;;;;;27.23;29.24;101629.72;6078549;23;97769;-89
2021/06/02 17:58:01;;;;;;;;;;;;;;;27.23;29.40;101636.00;6093488;22;101280;-89
2021/06/02 18:05:45;;;;;;;;;;;;;;;26.60;29.87;101648.03;6166990;22;96647;-91
2021/06/02 18:11:28;;;;;;;;;;;;;;;27.15;29.23;101652.13;6138129;22;96672;-90
2021/06/02 18:14:19;;;;;;;;;;;;;;;27.18;29.33;101654.53;6108943;23;100315;-89
2021/06/02 18:16:59;;;;;;;;;;;;;;;26.85;29.15;101649.41;6101170;23;99131;-90
2021/06/02 18:19:33;;;;;;;;;;;;;;;27.12;28.70;101657.81;6117098;22;96471;-90
2021/06/02 18:22:24;;;;;;;;;;;;;;;26.98;28.50;101659.06;6119356;23;96573;-88
2021/06/02 18:30:56;;;;;;;;;;;;;;;27.00;27.93;101658.06;6077364;22;99222;-88
2021/06/02 18:33:32;;;;;;;;;;;;;;;27.12;27.91;101663.22;6112809;23;96242;-88
2021/06/02 18:36:04;;;;;;;;;;;;;;;27.15;27.62;101664.81;6117727;23;98350;-91
2021/06/02 18:46:20;;;;;;;;;;;;;;;27.26;27.25;101670.97;6108327;22;99069;-89
2021/06/02 18:48:52;;;;;;;;;;;;;;;27.02;27.54;101667.78;6092226;23;97788;-86
2021/06/02 18:51:43;;;;;;;;;;;;;;;27.14;27.27;101674.81;6116987;23;96560;-86
2021/06/02 19:07:07;;;;;;;;;;;;;;;27.09;27.37;101690.66;6148813;22;100011;-87
2021/06/02 19:17:32;;;;;;;;;;;;;;;26.76;28.14;101712.63;6095984;22;99897;-88
2021/06/02 19:23:02;;;;;;;;;;;;;;;26.45;28.77;101711.75;6121321;23;96632;-86
2021/06/02 19:25:31;;;;;;;;;;;;;;;26.59;28.93;101723.06;6095112;23;96217;-88
2021/06/02 19:27:57;;;;;;;;;;;;;;;26.45;29.18;101723.41;6116140;23;96827;-89
2021/06/02 19:30:34;;;;;;;;;;;;;;;26.49;28.91;101719.47;6116669;23;98582;-90
2021/06/02 19:33:02;;;;;;;;;;;;;;;26.55;28.93;101716.22;6117159;23;97149;-90
2021/06/02 19:38:16;;;;;;;;;;;;;;;26.40;29.48;101731.09;6114505;23;98756;-87
2021/06/02 19:41:00;;;;;;;;;;;;;;;26.19;29.55;101731.06;6093000;23;97829;-88
2021/06/02 19:59:09;;;;;;;;;;;;;;;26.15;30.42;101753.13;6094668;22;100275;-87
2021/06/02 20:04:19;;;;;;;;;;;;;;;26.23;30.42;101753.34;6112929;22;96916;-88
2021/06/02 20:06:46;;;;;;;;;;;;;;;26.08;30.96;101755.50;6121741;23;97056;-87
2021/06/02 20:20:42;;;;;;;;;;;;;;;25.38;32.20;101755.06;6097473;22;99855;-86
2021/06/02 20:23:28;;;;;;;;;;;;;;;25.26;32.02;101756.94;6147608;22;98043;-91
2021/06/02 20:39:45;;;;;;;;;;;;;;;25.26;31.36;101767.75;6115448;22;100379;-90
2021/06/02 20:42:29;;;;;;;;;;;;;;;25.26;31.08;101764.19;6119640;23;99580;-86
2021/06/02 20:47:42;;;;;;;;;;;;;;;25.30;30.62;101765.66;6116481;23;96591;-88
2021/06/02 20:50:09;;;;;;;;;;;;;;;24.77;31.52;101769.91;6115735;23;96625;-87
2021/06/02 20:52:36;;;;;;;;;;;;;;;24.96;31.28;101770.22;6117668;23;98395;-87